Bayamon, PR (00961)

10:07 PM AST on August 22, 2014 (GMT -0400)
Cayey | Change Station
CLOSE
Current Station
Personal Weather Station
Location: Cayey, PR
Elevation: 1299 ft
Nearby Weather Stations
Active Advisory: Flash Flood Watch

Elev 1299 ft 18.12 °N, 66.16 °W | Updated 34 seconds ago

Partly Cloudy
Partly Cloudy
71.0 °F
Feels Like 71.0 °F
N
6.0
Wind Variable Wind from NE
Gusts 7.0 mph

Today
High -- | Low -- °F
--% Chance of Precip.
Yesterday
High -- | Low -- °F
Precip. -- in
6:08 AM 6:46 PM
Waning Crescent, 6% visible
Pressure 29.89 in
Visibility 10.0 miles
Clouds Few 9000 ft
Dew Point 70 °F
Humidity 99%
Rainfall 1.82 in
Snow Depth Not available.
UV 0 out of 12
Pollen Not available.
Air Quality Not available.
Flu Activity Not available.
METAR TJSJ 230156Z 06005KT 10SM FEW090 26/23 A2989 RMK AO2 SLP121 T02610233

More Conditions Fewer Conditions

Pressure 29.89 in
Visibility 10.0 miles
Clouds Few 9000 ft
Dew Point 70 °F
Humidity 99%
Rainfall 1.82 in
Snow Depth Not available.
UV 0 out of 12
Pollen Not available.
Air Quality Not available.
Flu Activity Not available.
METAR TJSJ 230156Z 06005KT 10SM FEW090 26/23 A2989 RMK AO2 SLP121 T02610233

More Conditions Fewer Conditions

10-Day Weather Forecast

Almanac

Astronomy

Aug. 22, 2014 Rise Set
Actual Time 6:08 AM AST 6:46 PM AST
Civil Twilight 5:45 AM AST 7:08 PM AST
Nautical Twilight 5:19 AM AST 7:34 PM AST
Astronomical Twilight 4:52 AM AST 8:01 PM AST
Moon 3:38 AM AST (8/22) 4:44 PM AST (8/22)
Length of Visible Light 13h 22m
Length of Day
12h 38m
Tomorrow will be 0m 57s shorter.
Waning Crescent, 6% of the Moon is Illuminated
Today
Waning Crescent
Aug 25
New
Sep 2
First Quarter
Sep 8
Full
Sep 15
Last Quarter

Community

WunderPhotos

Upload Photos

1,746,348 photos uploaded!

WunderBlogs® & News

Nearby

Snow Depth

Station Depth Elevation
No new snow has been reported.

Earthquake Activity

City Distance Mag. Time & Date
No recent earthquake activity has been reported nearby.
Minimum magnitude displayed is 2.5.

Coastal Water Temperatures

Place Temperature
Magueyes Islands, PR 84.9 °F
Yabucoa Harbor, PR 80.1 °F

Nearby Weather Stations